createdAt,value
2018-06-13T00:00:56.068Z,13.30
2018-06-13T00:03:24.118Z,13.40
2018-06-13T00:05:52.165Z,13.20
2018-06-13T00:08:20.462Z,13.20
2018-06-13T00:10:48.513Z,13.10
2018-06-13T00:13:16.577Z,13.00
2018-06-13T00:15:44.638Z,12.90
2018-06-13T00:18:13.042Z,12.90
2018-06-13T00:20:41.083Z,13.00
2018-06-13T00:23:09.758Z,13.00
2018-06-13T00:25:37.805Z,13.00
2018-06-13T00:28:05.881Z,12.80
2018-06-13T00:30:33.957Z,12.60
2018-06-13T00:33:02.016Z,12.50
2018-06-13T00:37:58.564Z,12.40
2018-06-13T00:40:26.630Z,12.40
2018-06-13T00:45:22.713Z,12.40
2018-06-13T00:47:50.797Z,12.40
2018-06-13T00:50:18.885Z,12.50
2018-06-13T00:52:46.957Z,12.50
2018-06-13T00:55:15.006Z,12.60
2018-06-13T00:57:43.098Z,12.60
2018-06-13T01:00:11.121Z,12.70
2018-06-13T01:02:39.178Z,12.70
2018-06-13T01:05:07.301Z,12.60
2018-06-13T01:07:35.365Z,12.60
2018-06-13T01:10:03.429Z,12.60
2018-06-13T01:12:31.474Z,12.60
2018-06-13T01:14:59.534Z,12.60
2018-06-13T01:17:27.564Z,12.60
2018-06-13T01:19:55.642Z,12.60
2018-06-13T01:22:23.690Z,12.60
2018-06-13T01:27:20.637Z,12.60
2018-06-13T01:29:48.725Z,12.70
2018-06-13T01:32:16.772Z,12.70
2018-06-13T01:34:44.818Z,12.70
2018-06-13T01:37:12.900Z,12.70
2018-06-13T01:39:40.985Z,12.80
2018-06-13T01:42:09.010Z,12.80
2018-06-13T01:44:37.059Z,12.80
2018-06-13T01:47:05.114Z,12.70
2018-06-13T01:49:33.160Z,12.80
2018-06-13T01:52:01.982Z,12.80
2018-06-13T01:54:30.042Z,12.70
2018-06-13T01:56:58.083Z,12.80
2018-06-13T01:59:26.137Z,12.90
2018-06-13T02:01:54.309Z,12.90
2018-06-13T02:04:22.356Z,13.00
2018-06-13T02:06:50.641Z,12.80
2018-06-13T02:09:18.673Z,12.80
2018-06-13T02:11:46.713Z,12.90
2018-06-13T02:14:14.763Z,12.90
2018-06-13T02:19:11.285Z,12.80
2018-06-13T02:21:39.334Z,12.80
2018-06-13T02:24:07.406Z,12.80
2018-06-13T02:26:35.454Z,12.90
2018-06-13T02:29:03.550Z,12.90
2018-06-13T02:31:31.581Z,13.00
2018-06-13T02:33:59.622Z,13.00
2018-06-13T02:36:27.675Z,12.90
2018-06-13T02:38:55.800Z,12.90
2018-06-13T02:41:23.853Z,12.90
2018-06-13T02:43:51.933Z,13.00
2018-06-13T02:46:20.033Z,13.00
2018-06-13T02:48:48.125Z,13.00
2018-06-13T02:51:16.204Z,12.90
2018-06-13T03:01:08.328Z,13.00
2018-06-13T03:03:36.365Z,13.00
2018-06-13T03:08:32.356Z,13.10
2018-06-13T03:11:00.405Z,13.10
2018-06-13T03:13:28.475Z,13.00
2018-06-13T03:15:56.514Z,12.90
2018-06-13T03:20:52.454Z,13.00
2018-06-13T03:23:20.489Z,13.00
2018-06-13T03:25:48.593Z,13.00
2018-06-13T03:28:16.645Z,13.00
2018-06-13T03:30:44.722Z,12.80
2018-06-13T03:33:12.930Z,12.90
2018-06-13T03:35:41.100Z,12.90
2018-06-13T03:38:09.162Z,13.00
2018-06-13T03:40:37.218Z,13.00
2018-06-13T03:43:05.282Z,13.00
2018-06-13T03:45:33.354Z,13.00
2018-06-13T03:48:01.437Z,13.00
2018-06-13T03:50:29.481Z,13.10
2018-06-13T03:52:57.542Z,13.10
2018-06-13T03:55:25.649Z,13.10
2018-06-13T03:57:53.685Z,13.10
2018-06-13T04:00:21.738Z,13.20
2018-06-13T04:02:50.458Z,13.20
2018-06-13T04:05:18.529Z,13.10
2018-06-13T04:07:46.605Z,13.20
2018-06-13T04:10:14.645Z,13.20
2018-06-13T04:12:42.709Z,13.20
2018-06-13T04:15:10.799Z,13.30
2018-06-13T04:17:38.915Z,13.30
2018-06-13T04:20:07.108Z,13.40
2018-06-13T04:25:03.222Z,13.40
2018-06-13T04:27:31.305Z,13.40
2018-06-13T04:29:59.580Z,13.50
2018-06-13T04:34:55.715Z,13.40
2018-06-13T04:37:23.793Z,13.50
2018-06-13T04:39:51.966Z,13.50
2018-06-13T04:42:19.997Z,13.40
2018-06-13T04:44:48.054Z,13.40
2018-06-13T04:47:16.129Z,13.40
2018-06-13T04:49:44.173Z,13.50
2018-06-13T04:52:12.239Z,13.50
2018-06-13T04:54:40.281Z,13.50
2018-06-13T04:57:08.366Z,13.40
2018-06-13T05:02:04.537Z,13.50
2018-06-13T05:04:32.786Z,13.60
2018-06-13T05:07:01.021Z,13.60
2018-06-13T05:09:29.094Z,13.60
2018-06-13T05:11:57.170Z,13.80
2018-06-13T05:14:25.228Z,13.80
2018-06-13T05:16:53.277Z,13.80
2018-06-13T05:19:21.338Z,13.80
2018-06-13T05:21:49.389Z,13.80
2018-06-13T05:24:17.518Z,13.90
2018-06-13T05:26:45.593Z,13.90
2018-06-13T05:29:13.697Z,14.00
2018-06-13T05:31:41.737Z,13.90
2018-06-13T05:34:09.812Z,14.10
2018-06-13T05:36:37.885Z,14.00
2018-06-13T05:39:07.636Z,14.00
2018-06-13T05:41:35.793Z,14.00
2018-06-13T05:44:03.881Z,14.20
2018-06-13T05:46:31.945Z,14.30
2018-06-13T05:51:27.989Z,14.30
2018-06-13T05:53:56.039Z,14.40
2018-06-13T05:56:24.090Z,14.40
2018-06-13T05:58:52.157Z,14.40
2018-06-13T06:01:20.258Z,14.20
2018-06-13T06:03:48.281Z,14.20
2018-06-13T06:06:16.329Z,14.20
2018-06-13T06:11:12.265Z,14.40
2018-06-13T06:13:40.333Z,14.50
2018-06-13T06:16:08.378Z,14.40
2018-06-13T06:18:36.622Z,14.50
2018-06-13T06:21:04.743Z,14.60
2018-06-13T06:23:32.853Z,14.50
2018-06-13T06:26:00.878Z,14.60
2018-06-13T06:28:28.932Z,14.70
2018-06-13T06:30:57.004Z,14.60
2018-06-13T06:33:25.054Z,14.70
2018-06-13T06:35:53.121Z,14.70
2018-06-13T06:38:21.166Z,14.70
2018-06-13T06:40:49.243Z,14.80
2018-06-13T06:43:17.298Z,15.10
2018-06-13T06:45:45.349Z,15.10
2018-06-13T06:48:13.786Z,15.40
2018-06-13T06:50:42.435Z,15.40
2018-06-13T06:53:10.505Z,15.50
2018-06-13T06:55:38.645Z,15.70
2018-06-13T06:58:06.625Z,15.70
2018-06-13T07:00:34.697Z,15.70
2018-06-13T07:03:02.765Z,15.60
2018-06-13T07:07:58.909Z,15.30
2018-06-13T07:10:26.978Z,15.30
2018-06-13T07:12:55.045Z,15.30
2018-06-13T07:15:23.111Z,15.30
2018-06-13T07:17:51.247Z,15.40
2018-06-13T07:20:19.356Z,15.40
2018-06-13T07:22:47.514Z,15.40
2018-06-13T07:25:15.571Z,15.60
2018-06-13T07:27:43.617Z,15.60
2018-06-13T07:32:39.605Z,15.50
2018-06-13T07:35:07.661Z,15.60
2018-06-13T07:37:35.709Z,15.60
2018-06-13T07:40:04.018Z,15.60
2018-06-13T07:42:32.078Z,15.50
2018-06-13T07:45:00.134Z,15.40
2018-06-13T07:47:28.285Z,15.50
2018-06-13T07:49:56.361Z,15.50
2018-06-13T07:52:24.431Z,15.50
2018-06-13T07:54:52.474Z,15.50
2018-06-13T07:57:20.555Z,15.70
2018-06-13T07:59:48.693Z,15.80
2018-06-13T08:02:16.799Z,15.80
2018-06-13T08:04:44.802Z,15.70
2018-06-13T08:07:12.873Z,15.90
2018-06-13T08:09:40.984Z,16.20
2018-06-13T08:12:09.374Z,16.40
2018-06-13T08:14:37.413Z,16.50
2018-06-13T08:17:05.494Z,16.60
2018-06-13T08:19:33.567Z,16.40
2018-06-13T08:22:01.667Z,16.40
2018-06-13T08:24:39.708Z,16.40
2018-06-13T08:27:07.778Z,16.20
2018-06-13T08:32:03.786Z,16.00
2018-06-13T08:34:31.929Z,16.00
2018-06-13T08:37:00.001Z,16.00
2018-06-13T08:39:28.066Z,16.10
2018-06-13T08:41:56.225Z,16.10
2018-06-13T08:44:24.311Z,16.30
2018-06-13T08:46:52.374Z,16.50
2018-06-13T08:49:20.628Z,16.20
2018-06-13T08:51:48.685Z,16.30
2018-06-13T08:54:16.769Z,16.30
2018-06-13T08:56:44.818Z,16.30
2018-06-13T08:59:12.878Z,16.40
2018-06-13T09:01:40.932Z,16.20
2018-06-13T09:04:08.969Z,16.20
2018-06-13T09:06:37.015Z,16.10
2018-06-13T09:09:07.596Z,16.70
2018-06-13T09:11:36.522Z,16.70
2018-06-13T09:14:05.002Z,17.20
2018-06-13T09:16:33.178Z,17.20
2018-06-13T09:19:01.298Z,17.50
2018-06-13T09:21:29.393Z,17.90
2018-06-13T09:23:57.441Z,17.90
2018-06-13T09:26:25.487Z,17.50
2018-06-13T09:28:53.525Z,17.50
2018-06-13T09:31:21.666Z,17.50
2018-06-13T09:33:49.869Z,17.60
2018-06-13T09:36:17.925Z,17.60
2018-06-13T09:38:45.985Z,17.70
2018-06-13T09:41:14.066Z,17.80
2018-06-13T09:43:42.102Z,18.00
2018-06-13T09:46:12.015Z,17.60
2018-06-13T09:48:38.242Z,17.40
2018-06-13T09:51:06.285Z,17.20
2018-06-13T09:53:34.342Z,17.60
2018-06-13T09:56:02.440Z,17.80
2018-06-13T09:58:34.760Z,18.00
2018-06-13T10:01:06.989Z,18.30
2018-06-13T10:03:35.333Z,18.30
2018-06-13T10:06:03.436Z,18.10
2018-06-13T10:08:31.485Z,17.70
2018-06-13T10:10:59.553Z,17.50
2018-06-13T10:13:27.597Z,17.50
2018-06-13T10:15:55.658Z,17.60
2018-06-13T10:18:23.697Z,17.50
2018-06-13T10:20:51.770Z,17.30
2018-06-13T10:23:19.809Z,17.40
2018-06-13T10:25:47.859Z,17.40
2018-06-13T10:28:15.927Z,17.50
2018-06-13T10:33:11.828Z,17.20
2018-06-13T10:35:39.878Z,17.20
2018-06-13T10:38:07.913Z,17.50
2018-06-13T10:40:35.978Z,17.60
2018-06-13T10:43:04.046Z,17.60
2018-06-13T10:45:32.143Z,17.50
2018-06-13T10:48:00.186Z,17.30
2018-06-13T10:50:28.241Z,17.60
2018-06-13T10:55:24.402Z,17.70
2018-06-13T10:57:52.473Z,17.70
2018-06-13T11:00:20.518Z,17.40
2018-06-13T11:02:48.576Z,17.40
2018-06-13T11:05:16.615Z,17.30
2018-06-13T11:07:44.669Z,17.50
2018-06-13T11:10:12.735Z,17.40
2018-06-13T11:12:40.801Z,17.40
2018-06-13T11:17:36.694Z,17.30
2018-06-13T11:20:04.750Z,17.30
2018-06-13T11:22:32.813Z,17.30
2018-06-13T11:25:00.910Z,17.20
2018-06-13T11:27:28.953Z,17.50
2018-06-13T11:29:57.035Z,17.30
2018-06-13T11:32:25.094Z,17.50
2018-06-13T11:35:00.373Z,17.60
2018-06-13T11:37:28.434Z,17.70
2018-06-13T11:39:56.526Z,18.00
2018-06-13T11:42:24.589Z,17.90
2018-06-13T11:44:52.671Z,17.90
2018-06-13T11:47:20.892Z,17.50
2018-06-13T11:49:49.173Z,17.40
2018-06-13T11:52:18.090Z,17.30
2018-06-13T11:54:46.164Z,17.10
2018-06-13T11:57:14.220Z,17.30
2018-06-13T11:59:42.264Z,17.30
2018-06-13T12:02:10.314Z,17.00
2018-06-13T12:04:38.379Z,17.00
2018-06-13T12:07:06.430Z,17.20
2018-06-13T12:09:34.483Z,16.90
2018-06-13T12:12:02.623Z,16.90
2018-06-13T12:14:30.706Z,16.50
2018-06-13T12:16:58.817Z,16.70
2018-06-13T12:19:26.850Z,16.70
2018-06-13T12:21:54.913Z,16.80
2018-06-13T12:24:22.978Z,16.80
2018-06-13T12:26:51.042Z,16.30
2018-06-13T12:29:19.122Z,16.40
2018-06-13T12:31:47.175Z,16.50
2018-06-13T12:34:15.269Z,16.60
2018-06-13T12:36:43.279Z,16.70
2018-06-13T12:39:12.046Z,16.80
2018-06-13T12:41:40.225Z,16.80
2018-06-13T12:44:08.278Z,16.80
2018-06-13T12:46:36.782Z,16.80
2018-06-13T12:49:04.845Z,16.90
2018-06-13T12:51:32.906Z,16.90
2018-06-13T12:54:01.506Z,17.20
2018-06-13T12:56:30.112Z,17.20
2018-06-13T12:58:58.382Z,17.20
2018-06-13T13:03:54.317Z,17.10
2018-06-13T13:08:50.434Z,16.80
2018-06-13T13:11:18.718Z,16.80
2018-06-13T13:13:46.795Z,16.70
2018-06-13T13:16:14.899Z,16.70
2018-06-13T13:18:42.942Z,16.70
2018-06-13T13:21:11.331Z,16.80
2018-06-13T13:23:39.384Z,17.10
2018-06-13T13:26:07.463Z,17.10
2018-06-13T13:28:35.737Z,16.90
2018-06-13T13:31:03.810Z,17.10
2018-06-13T13:33:31.882Z,17.30
2018-06-13T13:35:59.921Z,17.30
2018-06-13T13:38:27.993Z,17.20
2018-06-13T13:40:56.038Z,17.30
2018-06-13T13:43:24.150Z,17.30
2018-06-13T13:45:52.209Z,17.20
2018-06-13T13:48:20.253Z,17.20
2018-06-13T13:50:48.305Z,17.30
2018-06-13T13:53:16.405Z,17.40
2018-06-13T13:55:44.477Z,17.20
2018-06-13T13:58:12.641Z,17.00
2018-06-13T14:00:40.722Z,16.90
2018-06-13T14:03:08.788Z,16.90
2018-06-13T14:05:36.882Z,17.00
2018-06-13T14:08:05.521Z,17.10
2018-06-13T14:10:33.582Z,17.30
2018-06-13T14:13:01.622Z,17.60
2018-06-13T14:15:30.314Z,17.40
2018-06-13T14:17:58.357Z,17.40
2018-06-13T14:20:26.415Z,17.50
2018-06-13T14:22:54.469Z,17.70
2018-06-13T14:25:22.551Z,17.80
2018-06-13T14:27:50.625Z,17.90
2018-06-13T14:30:18.667Z,17.80
2018-06-13T14:32:46.731Z,17.70
2018-06-13T14:35:14.765Z,18.00
2018-06-13T14:37:42.814Z,18.00
2018-06-13T14:40:11.152Z,17.90
2018-06-13T14:42:39.218Z,17.70
2018-06-13T14:45:07.404Z,17.90
2018-06-13T14:47:35.503Z,17.60
2018-06-13T14:50:03.597Z,17.60
2018-06-13T14:52:32.301Z,17.60
2018-06-13T14:55:00.365Z,17.40
2018-06-13T14:57:28.421Z,17.40
2018-06-13T14:59:56.477Z,17.50
2018-06-13T15:02:24.813Z,17.30
2018-06-13T15:04:52.865Z,17.30
2018-06-13T15:07:20.926Z,17.50
2018-06-13T15:09:48.982Z,17.40
2018-06-13T15:12:17.038Z,17.40
2018-06-13T15:14:45.142Z,17.40
2018-06-13T15:17:13.211Z,17.40
2018-06-13T15:19:41.269Z,17.40
2018-06-13T15:22:09.687Z,17.50
2018-06-13T15:24:37.766Z,17.70
2018-06-13T15:27:05.825Z,17.40
2018-06-13T15:29:33.891Z,17.20
2018-06-13T15:32:01.953Z,17.20
2018-06-13T15:34:29.998Z,17.20
2018-06-13T15:36:58.046Z,17.20
2018-06-13T15:39:26.118Z,17.70
2018-06-13T15:41:54.158Z,17.60
2018-06-13T15:44:22.210Z,17.30
2018-06-13T15:46:50.274Z,17.20
2018-06-13T15:49:18.329Z,17.10
2018-06-13T15:51:46.373Z,17.20
2018-06-13T15:54:14.561Z,17.20
2018-06-13T15:56:42.602Z,16.90
2018-06-13T15:59:10.674Z,17.00
2018-06-13T16:01:38.720Z,17.00
2018-06-13T16:04:06.777Z,16.80
2018-06-13T16:06:35.089Z,16.90
2018-06-13T16:09:03.345Z,16.80
2018-06-13T16:11:32.422Z,17.00
2018-06-13T16:14:00.530Z,16.80
2018-06-13T16:16:28.593Z,16.70
2018-06-13T16:18:56.853Z,16.70
2018-06-13T16:21:24.933Z,16.60
2018-06-13T16:23:52.993Z,16.50
2018-06-13T16:26:21.049Z,16.70
2018-06-13T16:28:49.101Z,16.60
2018-06-13T16:31:17.163Z,16.40
2018-06-13T16:33:45.240Z,16.70
2018-06-13T16:36:13.301Z,16.50
2018-06-13T16:38:41.489Z,16.60
2018-06-13T16:41:09.551Z,16.60
2018-06-13T16:43:37.595Z,16.50
2018-06-13T16:46:05.629Z,16.70
2018-06-13T16:48:33.722Z,16.50
2018-06-13T16:51:13.278Z,16.40
2018-06-13T16:53:46.198Z,16.30
2018-06-13T16:56:14.813Z,16.20
2018-06-13T16:58:42.939Z,16.20
2018-06-13T17:01:11.005Z,16.20
2018-06-13T17:03:39.092Z,16.10
2018-06-13T17:06:07.184Z,16.20
2018-06-13T17:08:35.254Z,16.10
2018-06-13T17:13:31.381Z,16.00
2018-06-13T17:15:59.544Z,16.00
2018-06-13T17:18:27.638Z,16.00
2018-06-13T17:20:55.718Z,16.00
2018-06-13T17:23:23.788Z,16.10
2018-06-13T17:25:52.234Z,16.10
2018-06-13T17:28:20.535Z,16.10
2018-06-13T17:30:48.583Z,16.00
2018-06-13T17:33:16.673Z,16.00
2018-06-13T17:35:44.791Z,15.90
2018-06-13T17:38:12.865Z,15.80
2018-06-13T17:40:40.902Z,15.80
2018-06-13T17:43:09.250Z,15.80
2018-06-13T17:45:37.330Z,15.70
2018-06-13T17:48:05.402Z,15.70
2018-06-13T17:50:33.489Z,15.60
2018-06-13T17:53:01.626Z,15.50
2018-06-13T17:55:29.810Z,15.50
2018-06-13T17:57:57.922Z,15.50
2018-06-13T18:00:26.010Z,15.50
2018-06-13T18:02:54.063Z,15.60
2018-06-13T18:05:22.221Z,15.70
2018-06-13T18:07:50.293Z,15.60
2018-06-13T18:10:18.381Z,15.50
2018-06-13T18:12:47.002Z,15.40
2018-06-13T18:15:15.072Z,15.40
2018-06-13T18:17:43.241Z,15.30
2018-06-13T18:20:11.349Z,15.20
2018-06-13T18:22:39.405Z,15.10
2018-06-13T18:25:07.513Z,15.00
2018-06-13T18:27:35.646Z,15.00
2018-06-13T18:39:55.918Z,15.00
2018-06-13T18:42:23.974Z,15.00
2018-06-13T18:44:52.034Z,15.00
2018-06-13T18:47:20.097Z,15.00
2018-06-13T18:49:48.169Z,15.00
2018-06-13T18:52:16.343Z,14.90
2018-06-13T18:54:44.388Z,14.90
2018-06-13T18:57:12.425Z,14.90
2018-06-13T18:59:40.498Z,14.90
2018-06-13T19:02:08.988Z,15.00
2018-06-13T19:04:37.057Z,15.00
2018-06-13T19:12:01.106Z,14.90
2018-06-13T19:14:29.312Z,14.90
2018-06-13T19:16:57.377Z,14.90
2018-06-13T19:19:25.641Z,14.70
2018-06-13T19:21:53.845Z,14.60
2018-06-13T19:26:49.834Z,14.80
2018-06-13T19:29:17.905Z,14.80
2018-06-13T19:31:45.975Z,14.80
2018-06-13T19:34:14.031Z,14.80
2018-06-13T19:36:42.080Z,14.80
2018-06-13T19:39:11.447Z,14.80
2018-06-13T19:41:39.525Z,14.70
2018-06-13T19:44:07.587Z,14.80
2018-06-13T19:46:35.694Z,14.80
2018-06-13T19:49:03.757Z,14.80
2018-06-13T19:51:31.885Z,14.70
2018-06-13T19:54:05.425Z,14.70
2018-06-13T19:56:33.875Z,14.70
2018-06-13T19:59:03.014Z,14.70
2018-06-13T20:01:31.114Z,14.70
2018-06-13T20:04:04.516Z,14.70
2018-06-13T20:06:32.554Z,14.70
2018-06-13T20:09:00.617Z,14.60
2018-06-13T20:11:28.718Z,14.50
2018-06-13T20:14:02.274Z,14.50
2018-06-13T20:16:49.999Z,14.40
2018-06-13T20:21:52.094Z,14.50
2018-06-13T20:29:27.353Z,14.40
2018-06-13T20:31:55.423Z,14.40
2018-06-13T20:34:23.505Z,14.40
2018-06-13T20:39:19.641Z,14.50
2018-06-13T20:41:47.714Z,14.50
2018-06-13T20:46:43.704Z,14.50
2018-06-13T20:49:12.336Z,14.50
2018-06-13T20:51:40.526Z,14.40
2018-06-13T20:54:08.602Z,14.40
2018-06-13T20:56:36.683Z,14.30
2018-06-13T20:59:04.750Z,14.40
2018-06-13T21:01:32.783Z,14.50
2018-06-13T21:04:00.878Z,14.50
2018-06-13T21:06:28.986Z,14.50
2018-06-13T21:08:57.094Z,14.50
2018-06-13T21:11:25.156Z,14.30
2018-06-13T21:13:53.217Z,14.40
2018-06-13T21:16:21.270Z,14.40
2018-06-13T21:18:49.374Z,14.40
2018-06-13T21:21:17.425Z,14.50
2018-06-13T21:23:45.493Z,14.60
2018-06-13T21:26:13.522Z,14.50
2018-06-13T21:28:41.609Z,14.50
2018-06-13T21:31:09.611Z,14.50
2018-06-13T21:33:37.673Z,14.60
2018-06-13T21:36:05.716Z,14.60
2018-06-13T21:38:33.757Z,14.70
2018-06-13T21:41:01.795Z,14.50
2018-06-13T21:43:30.485Z,14.60
2018-06-13T21:45:58.541Z,14.50
2018-06-13T21:48:26.654Z,14.50
2018-06-13T21:50:54.716Z,14.30
2018-06-13T21:53:22.815Z,14.20
2018-06-13T21:58:18.684Z,14.30
2018-06-13T22:00:46.763Z,14.30
2018-06-13T22:03:14.850Z,14.20
2018-06-13T22:05:42.914Z,14.20
2018-06-13T22:08:11.182Z,14.20
2018-06-13T22:10:39.381Z,14.10
2018-06-13T22:13:07.450Z,14.20
2018-06-13T22:15:35.482Z,14.20
2018-06-13T22:18:03.572Z,14.20
2018-06-13T22:20:31.689Z,14.20
2018-06-13T22:22:59.761Z,14.20
2018-06-13T22:25:27.867Z,14.20
2018-06-13T22:27:55.876Z,14.20
2018-06-13T22:30:23.917Z,14.10
2018-06-13T22:32:51.964Z,14.20
2018-06-13T22:35:20.006Z,14.20
2018-06-13T22:37:48.054Z,14.20
2018-06-13T22:40:16.117Z,14.20
2018-06-13T22:42:44.149Z,14.10
2018-06-13T22:45:12.221Z,14.10
2018-06-13T22:47:40.478Z,14.10
2018-06-13T22:50:08.541Z,14.10
2018-06-13T22:52:36.634Z,14.10
2018-06-13T22:55:04.706Z,14.00
2018-06-13T22:57:32.757Z,14.00
2018-06-13T23:00:00.927Z,14.00
2018-06-13T23:02:28.953Z,14.10
2018-06-13T23:04:56.997Z,14.20
2018-06-13T23:07:25.074Z,14.20
2018-06-13T23:09:53.121Z,14.10
2018-06-13T23:12:21.177Z,14.10
2018-06-13T23:14:49.237Z,14.10
2018-06-13T23:17:17.288Z,14.10
2018-06-13T23:19:45.369Z,14.00
2018-06-13T23:22:13.398Z,14.10
2018-06-13T23:24:41.470Z,14.10
2018-06-13T23:27:09.526Z,14.10
2018-06-13T23:29:37.562Z,14.10
2018-06-13T23:32:05.629Z,14.20
2018-06-13T23:34:33.685Z,14.20
2018-06-13T23:37:01.738Z,14.20
2018-06-13T23:41:57.686Z,14.30
2018-06-13T23:44:25.733Z,14.20
2018-06-13T23:46:53.801Z,14.20
2018-06-13T23:49:21.851Z,14.30
2018-06-13T23:51:49.973Z,14.30
2018-06-13T23:54:18.045Z,14.40
2018-06-13T23:56:46.146Z,14.30
2018-06-13T23:59:14.213Z,14.30
